sensor_id;sensor_type;location;lat;lon;timestamp;temperature;humidity
15341;DHT22;7770;52.158;5.372;2023-07-13T00:01:15;16.90;99.90
15341;DHT22;7770;52.158;5.372;2023-07-13T00:04:01;16.80;99.90
15341;DHT22;7770;52.158;5.372;2023-07-13T00:06:47;16.80;99.90
15341;DHT22;7770;52.158;5.372;2023-07-13T00:09:34;16.70;99.90
15341;DHT22;7770;52.158;5.372;2023-07-13T00:12:27;16.70;99.90
15341;DHT22;7770;52.158;5.372;2023-07-13T00:15:21;16.70;99.90
15341;DHT22;7770;52.158;5.372;2023-07-13T00:18:08;16.70;99.90
15341;DHT22;7770;52.158;5.372;2023-07-13T00:20:54;16.60;99.90
15341;DHT22;7770;52.158;5.372;2023-07-13T00:23:41;16.60;99.90
15341;DHT22;7770;52.158;5.372;2023-07-13T00:26:28;16.50;99.90
15341;DHT22;7770;52.158;5.372;2023-07-13T00:29:14;16.50;99.90
15341;DHT22;7770;52.158;5.372;2023-07-13T00:32:03;16.50;99.90
15341;DHT22;7770;52.158;5.372;2023-07-13T00:34:51;16.50;99.90
15341;DHT22;7770;52.158;5.372;2023-07-13T00:37:37;16.50;99.90
15341;DHT22;7770;52.158;5.372;2023-07-13T00:40:23;16.50;99.90
15341;DHT22;7770;52.158;5.372;2023-07-13T00:43:19;16.50;99.90
15341;DHT22;7770;52.158;5.372;2023-07-13T00:46:27;16.40;99.90
15341;DHT22;7770;52.158;5.372;2023-07-13T00:49:18;16.40;99.90
15341;DHT22;7770;52.158;5.372;2023-07-13T00:52:07;16.40;99.90
15341;DHT22;7770;52.158;5.372;2023-07-13T00:54:55;16.30;99.90
15341;DHT22;7770;52.158;5.372;2023-07-13T00:57:42;16.20;99.90
15341;DHT22;7770;52.158;5.372;2023-07-13T01:00:29;16.20;99.90
15341;DHT22;7770;52.158;5.372;2023-07-13T01:03:15;16.10;99.90
15341;DHT22;7770;52.158;5.372;2023-07-13T01:06:02;16.00;99.90
15341;DHT22;7770;52.158;5.372;2023-07-13T01:08:48;16.00;99.90
15341;DHT22;7770;52.158;5.372;2023-07-13T01:11:34;15.90;99.90
15341;DHT22;7770;52.158;5.372;2023-07-13T01:14:20;15.90;99.90
15341;DHT22;7770;52.158;5.372;2023-07-13T01:17:09;15.80;99.90
15341;DHT22;7770;52.158;5.372;2023-07-13T01:19:56;15.80;99.90
15341;DHT22;7770;52.158;5.372;2023-07-13T01:22:42;15.80;99.90
15341;DHT22;7770;52.158;5.372;2023-07-13T01:25:28;15.80;99.90
15341;DHT22;7770;52.158;5.372;2023-07-13T01:28:15;15.70;99.90
15341;DHT22;7770;52.158;5.372;2023-07-13T01:31:02;15.70;99.90
15341;DHT22;7770;52.158;5.372;2023-07-13T01:33:49;15.70;99.90
15341;DHT22;7770;52.158;5.372;2023-07-13T01:36:35;15.60;99.90
15341;DHT22;7770;52.158;5.372;2023-07-13T01:39:22;15.60;99.90
15341;DHT22;7770;52.158;5.372;2023-07-13T01:42:08;15.60;99.90
15341;DHT22;7770;52.158;5.372;2023-07-13T01:44:54;15.60;99.90
15341;DHT22;7770;52.158;5.372;2023-07-13T01:47:40;15.50;99.90
15341;DHT22;7770;52.158;5.372;2023-07-13T01:50:27;15.50;99.90
15341;DHT22;7770;52.158;5.372;2023-07-13T01:53:14;15.50;99.90
15341;DHT22;7770;52.158;5.372;2023-07-13T01:55:59;15.40;99.90
15341;DHT22;7770;52.158;5.372;2023-07-13T01:58:46;15.50;99.90
15341;DHT22;7770;52.158;5.372;2023-07-13T02:01:32;15.40;99.90
15341;DHT22;7770;52.158;5.372;2023-07-13T02:04:18;15.40;99.90
15341;DHT22;7770;52.158;5.372;2023-07-13T02:07:04;15.30;99.90
15341;DHT22;7770;52.158;5.372;2023-07-13T02:09:50;15.30;99.90
15341;DHT22;7770;52.158;5.372;2023-07-13T02:12:37;15.30;99.90
15341;DHT22;7770;52.158;5.372;2023-07-13T02:15:23;15.10;99.90
15341;DHT22;7770;52.158;5.372;2023-07-13T02:18:10;15.10;99.90
15341;DHT22;7770;52.158;5.372;2023-07-13T02:20:56;15.10;99.90
15341;DHT22;7770;52.158;5.372;2023-07-13T02:23:42;15.00;99.90
15341;DHT22;7770;52.158;5.372;2023-07-13T02:26:28;15.00;99.90
15341;DHT22;7770;52.158;5.372;2023-07-13T02:29:14;15.00;99.90
15341;DHT22;7770;52.158;5.372;2023-07-13T02:32:00;15.00;99.90
15341;DHT22;7770;52.158;5.372;2023-07-13T02:34:46;14.90;99.90
15341;DHT22;7770;52.158;5.372;2023-07-13T02:37:32;14.90;99.90
15341;DHT22;7770;52.158;5.372;2023-07-13T02:40:18;14.90;99.90
15341;DHT22;7770;52.158;5.372;2023-07-13T02:43:04;14.80;99.90
15341;DHT22;7770;52.158;5.372;2023-07-13T02:45:50;14.90;99.90
15341;DHT22;7770;52.158;5.372;2023-07-13T02:48:38;14.90;99.90
15341;DHT22;7770;52.158;5.372;2023-07-13T02:51:24;14.80;99.90
15341;DHT22;7770;52.158;5.372;2023-07-13T02:54:11;14.80;99.90
15341;DHT22;7770;52.158;5.372;2023-07-13T02:56:59;14.80;99.90
15341;DHT22;7770;52.158;5.372;2023-07-13T02:59:45;14.80;99.90
15341;DHT22;7770;52.158;5.372;2023-07-13T03:02:32;14.80;99.90
15341;DHT22;7770;52.158;5.372;2023-07-13T03:05:18;14.80;99.90
15341;DHT22;7770;52.158;5.372;2023-07-13T03:08:04;14.80;99.90
15341;DHT22;7770;52.158;5.372;2023-07-13T03:11:02;14.80;99.90
15341;DHT22;7770;52.158;5.372;2023-07-13T03:13:52;14.70;99.90
15341;DHT22;7770;52.158;5.372;2023-07-13T03:16:38;14.70;99.90
15341;DHT22;7770;52.158;5.372;2023-07-13T03:19:25;14.70;99.90
15341;DHT22;7770;52.158;5.372;2023-07-13T03:22:11;14.70;99.90
15341;DHT22;7770;52.158;5.372;2023-07-13T03:24:57;14.70;99.90
15341;DHT22;7770;52.158;5.372;2023-07-13T03:27:43;14.70;99.90
15341;DHT22;7770;52.158;5.372;2023-07-13T03:30:29;14.70;99.90
15341;DHT22;7770;52.158;5.372;2023-07-13T03:33:15;14.70;99.90
15341;DHT22;7770;52.158;5.372;2023-07-13T03:36:02;14.70;99.90
15341;DHT22;7770;52.158;5.372;2023-07-13T03:38:51;14.70;99.90
15341;DHT22;7770;52.158;5.372;2023-07-13T03:41:39;14.70;99.90
15341;DHT22;7770;52.158;5.372;2023-07-13T03:44:25;14.70;99.90
15341;DHT22;7770;52.158;5.372;2023-07-13T03:47:11;14.70;99.90
15341;DHT22;7770;52.158;5.372;2023-07-13T03:49:57;14.70;99.90
15341;DHT22;7770;52.158;5.372;2023-07-13T03:52:43;14.60;99.90
15341;DHT22;7770;52.158;5.372;2023-07-13T03:55:29;14.60;99.90
15341;DHT22;7770;52.158;5.372;2023-07-13T03:58:28;14.60;99.90
15341;DHT22;7770;52.158;5.372;2023-07-13T04:01:20;14.70;99.90
15341;DHT22;7770;52.158;5.372;2023-07-13T04:04:07;14.70;99.90
15341;DHT22;7770;52.158;5.372;2023-07-13T04:06:53;14.80;99.90
15341;DHT22;7770;52.158;5.372;2023-07-13T04:09:39;14.80;99.90
15341;DHT22;7770;52.158;5.372;2023-07-13T04:12:25;14.90;99.90
15341;DHT22;7770;52.158;5.372;2023-07-13T04:15:11;14.90;99.90
15341;DHT22;7770;52.158;5.372;2023-07-13T04:17:57;14.90;99.90
15341;DHT22;7770;52.158;5.372;2023-07-13T04:20:44;14.90;99.90
15341;DHT22;7770;52.158;5.372;2023-07-13T04:23:30;14.90;99.90
15341;DHT22;7770;52.158;5.372;2023-07-13T04:26:16;14.90;99.90
15341;DHT22;7770;52.158;5.372;2023-07-13T04:29:02;14.90;99.90
15341;DHT22;7770;52.158;5.372;2023-07-13T04:31:49;14.90;99.90
15341;DHT22;7770;52.158;5.372;2023-07-13T04:34:35;14.90;99.90
15341;DHT22;7770;52.158;5.372;2023-07-13T04:37:21;15.00;99.90
15341;DHT22;7770;52.158;5.372;2023-07-13T04:40:07;15.10;99.90
15341;DHT22;7770;52.158;5.372;2023-07-13T04:42:57;15.10;99.90
15341;DHT22;7770;52.158;5.372;2023-07-13T04:45:43;15.20;99.90
15341;DHT22;7770;52.158;5.372;2023-07-13T04:48:29;15.20;99.90
15341;DHT22;7770;52.158;5.372;2023-07-13T04:51:15;15.30;99.90
15341;DHT22;7770;52.158;5.372;2023-07-13T04:54:01;15.30;99.90
15341;DHT22;7770;52.158;5.372;2023-07-13T04:56:47;15.40;99.90
15341;DHT22;7770;52.158;5.372;2023-07-13T04:59:34;15.50;99.90
15341;DHT22;7770;52.158;5.372;2023-07-13T05:02:21;15.50;99.90
15341;DHT22;7770;52.158;5.372;2023-07-13T05:05:07;15.60;99.90
15341;DHT22;7770;52.158;5.372;2023-07-13T05:07:54;15.70;99.90
15341;DHT22;7770;52.158;5.372;2023-07-13T05:10:40;15.80;99.90
15341;DHT22;7770;52.158;5.372;2023-07-13T05:13:26;15.80;99.90
15341;DHT22;7770;52.158;5.372;2023-07-13T05:16:12;15.90;99.90
15341;DHT22;7770;52.158;5.372;2023-07-13T05:18:58;16.00;99.90
15341;DHT22;7770;52.158;5.372;2023-07-13T05:21:44;16.10;99.90
15341;DHT22;7770;52.158;5.372;2023-07-13T05:24:30;16.30;99.90
15341;DHT22;7770;52.158;5.372;2023-07-13T05:27:16;16.50;99.90
15341;DHT22;7770;52.158;5.372;2023-07-13T05:30:03;16.90;99.90
15341;DHT22;7770;52.158;5.372;2023-07-13T05:32:49;17.60;99.90
15341;DHT22;7770;52.158;5.372;2023-07-13T05:35:36;17.90;99.90
15341;DHT22;7770;52.158;5.372;2023-07-13T05:38:22;18.40;99.90
15341;DHT22;7770;52.158;5.372;2023-07-13T05:41:08;19.10;99.90
15341;DHT22;7770;52.158;5.372;2023-07-13T05:43:54;19.40;99.90
15341;DHT22;7770;52.158;5.372;2023-07-13T05:46:40;19.30;99.90
15341;DHT22;7770;52.158;5.372;2023-07-13T05:49:26;19.10;99.90
15341;DHT22;7770;52.158;5.372;2023-07-13T05:52:12;18.70;99.90
15341;DHT22;7770;52.158;5.372;2023-07-13T05:54:58;18.40;99.90
15341;DHT22;7770;52.158;5.372;2023-07-13T05:57:44;19.10;99.90
15341;DHT22;7770;52.158;5.372;2023-07-13T06:00:30;19.60;99.90
15341;DHT22;7770;52.158;5.372;2023-07-13T06:03:16;19.80;99.90
15341;DHT22;7770;52.158;5.372;2023-07-13T06:06:02;20.00;99.90
15341;DHT22;7770;52.158;5.372;2023-07-13T06:08:50;20.30;99.90
15341;DHT22;7770;52.158;5.372;2023-07-13T06:11:36;20.20;99.90
15341;DHT22;7770;52.158;5.372;2023-07-13T06:14:22;19.90;99.90
15341;DHT22;7770;52.158;5.372;2023-07-13T06:17:08;19.70;99.90
15341;DHT22;7770;52.158;5.372;2023-07-13T06:19:54;19.40;99.90
15341;DHT22;7770;52.158;5.372;2023-07-13T06:22:40;19.10;99.90
15341;DHT22;7770;52.158;5.372;2023-07-13T06:25:26;18.90;99.90
15341;DHT22;7770;52.158;5.372;2023-07-13T06:28:12;18.90;99.90
15341;DHT22;7770;52.158;5.372;2023-07-13T06:30:59;18.70;99.90
15341;DHT22;7770;52.158;5.372;2023-07-13T06:33:45;18.80;99.90
15341;DHT22;7770;52.158;5.372;2023-07-13T06:36:31;19.00;99.90
15341;DHT22;7770;52.158;5.372;2023-07-13T06:39:17;19.40;99.90
15341;DHT22;7770;52.158;5.372;2023-07-13T06:42:03;19.30;99.90
15341;DHT22;7770;52.158;5.372;2023-07-13T06:44:50;19.30;99.90
15341;DHT22;7770;52.158;5.372;2023-07-13T06:47:36;19.60;99.90
15341;DHT22;7770;52.158;5.372;2023-07-13T06:50:22;19.50;99.90
15341;DHT22;7770;52.158;5.372;2023-07-13T06:53:09;19.40;99.90
15341;DHT22;7770;52.158;5.372;2023-07-13T06:55:55;19.20;99.90
15341;DHT22;7770;52.158;5.372;2023-07-13T06:58:41;19.20;99.90
15341;DHT22;7770;52.158;5.372;2023-07-13T07:01:27;19.30;99.90
15341;DHT22;7770;52.158;5.372;2023-07-13T07:04:13;19.80;99.90
15341;DHT22;7770;52.158;5.372;2023-07-13T07:06:59;20.60;99.90
15341;DHT22;7770;52.158;5.372;2023-07-13T07:09:45;20.90;99.90
15341;DHT22;7770;52.158;5.372;2023-07-13T07:12:31;20.30;99.90
15341;DHT22;7770;52.158;5.372;2023-07-13T07:15:18;19.80;99.90
15341;DHT22;7770;52.158;5.372;2023-07-13T07:18:04;19.60;99.90
15341;DHT22;7770;52.158;5.372;2023-07-13T07:20:50;19.70;99.90
15341;DHT22;7770;52.158;5.372;2023-07-13T07:23:36;19.60;99.90
15341;DHT22;7770;52.158;5.372;2023-07-13T07:26:22;19.40;99.90
15341;DHT22;7770;52.158;5.372;2023-07-13T07:29:08;19.30;99.90
15341;DHT22;7770;52.158;5.372;2023-07-13T07:31:54;19.10;99.90
15341;DHT22;7770;52.158;5.372;2023-07-13T07:34:40;19.00;99.90
15341;DHT22;7770;52.158;5.372;2023-07-13T07:37:26;18.90;99.90
15341;DHT22;7770;52.158;5.372;2023-07-13T07:40:12;18.70;99.90
15341;DHT22;7770;52.158;5.372;2023-07-13T07:42:58;18.70;99.90
15341;DHT22;7770;52.158;5.372;2023-07-13T07:45:45;18.80;99.90
15341;DHT22;7770;52.158;5.372;2023-07-13T07:48:31;18.80;99.90
15341;DHT22;7770;52.158;5.372;2023-07-13T07:51:17;19.10;99.90
15341;DHT22;7770;52.158;5.372;2023-07-13T07:54:04;19.40;99.90
15341;DHT22;7770;52.158;5.372;2023-07-13T07:56:50;19.50;99.90
15341;DHT22;7770;52.158;5.372;2023-07-13T07:59:37;20.10;99.90
15341;DHT22;7770;52.158;5.372;2023-07-13T08:02:25;21.60;99.90
15341;DHT22;7770;52.158;5.372;2023-07-13T08:05:11;23.50;99.90
15341;DHT22;7770;52.158;5.372;2023-07-13T08:07:57;25.00;99.90
15341;DHT22;7770;52.158;5.372;2023-07-13T08:10:43;25.60;99.90
15341;DHT22;7770;52.158;5.372;2023-07-13T08:13:29;25.70;99.90
15341;DHT22;7770;52.158;5.372;2023-07-13T08:16:15;25.20;99.90
15341;DHT22;7770;52.158;5.372;2023-07-13T08:19:01;24.80;99.90
15341;DHT22;7770;52.158;5.372;2023-07-13T08:21:47;25.40;99.90
15341;DHT22;7770;52.158;5.372;2023-07-13T08:24:34;26.20;99.90
15341;DHT22;7770;52.158;5.372;2023-07-13T08:27:20;27.30;99.90
15341;DHT22;7770;52.158;5.372;2023-07-13T08:30:06;27.60;99.90
15341;DHT22;7770;52.158;5.372;2023-07-13T08:32:53;26.50;99.90
15341;DHT22;7770;52.158;5.372;2023-07-13T08:35:39;25.10;99.90
15341;DHT22;7770;52.158;5.372;2023-07-13T08:38:25;24.00;99.90
15341;DHT22;7770;52.158;5.372;2023-07-13T08:41:17;23.60;99.90
15341;DHT22;7770;52.158;5.372;2023-07-13T08:44:10;24.50;99.90
15341;DHT22;7770;52.158;5.372;2023-07-13T08:47:04;24.50;99.90
15341;DHT22;7770;52.158;5.372;2023-07-13T08:49:51;23.10;99.90
15341;DHT22;7770;52.158;5.372;2023-07-13T08:52:40;22.20;99.90
15341;DHT22;7770;52.158;5.372;2023-07-13T08:55:31;21.60;99.90
15341;DHT22;7770;52.158;5.372;2023-07-13T08:58:21;20.90;99.90
15341;DHT22;7770;52.158;5.372;2023-07-13T09:01:22;20.50;99.90
15341;DHT22;7770;52.158;5.372;2023-07-13T09:04:25;20.10;99.90
15341;DHT22;7770;52.158;5.372;2023-07-13T09:10:21;19.40;99.90
15341;DHT22;7770;52.158;5.372;2023-07-13T09:16:19;19.40;99.90
15341;DHT22;7770;52.158;5.372;2023-07-13T09:19:11;19.40;99.90
15341;DHT22;7770;52.158;5.372;2023-07-13T09:22:03;19.40;99.90
15341;DHT22;7770;52.158;5.372;2023-07-13T09:24:55;19.40;99.90
15341;DHT22;7770;52.158;5.372;2023-07-13T09:27:47;19.70;99.90
15341;DHT22;7770;52.158;5.372;2023-07-13T09:30:40;20.20;99.90
15341;DHT22;7770;52.158;5.372;2023-07-13T09:33:31;20.70;99.90
15341;DHT22;7770;52.158;5.372;2023-07-13T09:36:22;22.00;99.90
15341;DHT22;7770;52.158;5.372;2023-07-13T09:39:25;24.00;99.90
15341;DHT22;7770;52.158;5.372;2023-07-13T09:42:20;25.10;99.90
15341;DHT22;7770;52.158;5.372;2023-07-13T09:45:07;24.50;99.90
15341;DHT22;7770;52.158;5.372;2023-07-13T09:48:11;22.80;99.90
15341;DHT22;7770;52.158;5.372;2023-07-13T09:51:09;21.80;99.90
15341;DHT22;7770;52.158;5.372;2023-07-13T09:54:00;20.80;99.90
15341;DHT22;7770;52.158;5.372;2023-07-13T09:56:48;19.90;99.90
15341;DHT22;7770;52.158;5.372;2023-07-13T09:59:43;19.30;99.90
15341;DHT22;7770;52.158;5.372;2023-07-13T10:02:34;19.00;99.90
15341;DHT22;7770;52.158;5.372;2023-07-13T10:05:21;19.30;99.90
15341;DHT22;7770;52.158;5.372;2023-07-13T10:08:28;21.50;99.90
15341;DHT22;7770;52.158;5.372;2023-07-13T10:14:21;26.00;99.90
15341;DHT22;7770;52.158;5.372;2023-07-13T10:17:13;26.60;99.90
15341;DHT22;7770;52.158;5.372;2023-07-13T10:20:02;26.60;99.90
15341;DHT22;7770;52.158;5.372;2023-07-13T10:23:02;25.50;99.90
15341;DHT22;7770;52.158;5.372;2023-07-13T10:25:50;24.70;99.90
15341;DHT22;7770;52.158;5.372;2023-07-13T10:28:37;24.10;99.90
15341;DHT22;7770;52.158;5.372;2023-07-13T10:31:24;25.00;99.90
15341;DHT22;7770;52.158;5.372;2023-07-13T10:34:12;26.90;99.90
15341;DHT22;7770;52.158;5.372;2023-07-13T10:37:00;27.70;99.90
15341;DHT22;7770;52.158;5.372;2023-07-13T10:39:46;26.70;99.90
15341;DHT22;7770;52.158;5.372;2023-07-13T10:42:38;25.30;99.90
15341;DHT22;7770;52.158;5.372;2023-07-13T10:45:27;24.40;99.90
15341;DHT22;7770;52.158;5.372;2023-07-13T10:48:15;23.80;99.90
15341;DHT22;7770;52.158;5.372;2023-07-13T10:51:01;24.30;99.90
15341;DHT22;7770;52.158;5.372;2023-07-13T10:54:19;25.80;99.90
15341;DHT22;7770;52.158;5.372;2023-07-13T10:57:22;27.00;99.90
15341;DHT22;7770;52.158;5.372;2023-07-13T11:00:17;27.50;99.90
15341;DHT22;7770;52.158;5.372;2023-07-13T11:03:04;27.30;99.90
15341;DHT22;7770;52.158;5.372;2023-07-13T11:05:51;27.70;99.90
15341;DHT22;7770;52.158;5.372;2023-07-13T11:08:54;26.70;99.90
15341;DHT22;7770;52.158;5.372;2023-07-13T11:11:41;25.80;99.90
15341;DHT22;7770;52.158;5.372;2023-07-13T11:14:37;26.30;99.90
15341;DHT22;7770;52.158;5.372;2023-07-13T11:17:35;27.10;99.90
15341;DHT22;7770;52.158;5.372;2023-07-13T11:20:31;26.30;99.90
15341;DHT22;7770;52.158;5.372;2023-07-13T11:23:30;26.30;99.90
15341;DHT22;7770;52.158;5.372;2023-07-13T11:29:38;26.80;99.90
15341;DHT22;7770;52.158;5.372;2023-07-13T11:32:29;27.10;99.90
15341;DHT22;7770;52.158;5.372;2023-07-13T11:35:22;25.70;99.90
15341;DHT22;7770;52.158;5.372;2023-07-13T11:38:22;24.60;99.90
15341;DHT22;7770;52.158;5.372;2023-07-13T11:41:21;23.50;99.90
15341;DHT22;7770;52.158;5.372;2023-07-13T11:44:20;23.70;99.90
15341;DHT22;7770;52.158;5.372;2023-07-13T11:47:17;25.80;99.90
15341;DHT22;7770;52.158;5.372;2023-07-13T11:50:18;26.70;99.90
15341;DHT22;7770;52.158;5.372;2023-07-13T11:53:09;25.40;99.90
15341;DHT22;7770;52.158;5.372;2023-07-13T11:55:56;24.30;99.90
15341;DHT22;7770;52.158;5.372;2023-07-13T11:58:43;23.40;99.90
15341;DHT22;7770;52.158;5.372;2023-07-13T12:01:31;22.80;99.90
15341;DHT22;7770;52.158;5.372;2023-07-13T12:04:25;22.50;99.90
15341;DHT22;7770;52.158;5.372;2023-07-13T12:07:17;22.50;99.90
15341;DHT22;7770;52.158;5.372;2023-07-13T12:13:05;22.50;99.90
15341;DHT22;7770;52.158;5.372;2023-07-13T12:15:53;23.20;99.90
15341;DHT22;7770;52.158;5.372;2023-07-13T12:18:42;23.50;99.90
15341;DHT22;7770;52.158;5.372;2023-07-13T12:21:36;23.20;99.90
15341;DHT22;7770;52.158;5.372;2023-07-13T12:24:25;23.10;99.90
15341;DHT22;7770;52.158;5.372;2023-07-13T12:27:26;22.80;99.90
15341;DHT22;7770;52.158;5.372;2023-07-13T12:30:32;22.90;99.90
15341;DHT22;7770;52.158;5.372;2023-07-13T12:33:27;23.10;99.90
15341;DHT22;7770;52.158;5.372;2023-07-13T12:36:14;23.10;99.90
15341;DHT22;7770;52.158;5.372;2023-07-13T12:39:24;23.00;99.90
15341;DHT22;7770;52.158;5.372;2023-07-13T12:45:21;23.60;99.90
15341;DHT22;7770;52.158;5.372;2023-07-13T12:48:16;24.00;99.90
15341;DHT22;7770;52.158;5.372;2023-07-13T12:51:02;24.20;99.90
15341;DHT22;7770;52.158;5.372;2023-07-13T12:53:51;24.30;99.90
15341;DHT22;7770;52.158;5.372;2023-07-13T12:56:43;24.40;99.90
15341;DHT22;7770;52.158;5.372;2023-07-13T12:59:31;24.80;99.90
15341;DHT22;7770;52.158;5.372;2023-07-13T13:02:30;24.90;99.90
15341;DHT22;7770;52.158;5.372;2023-07-13T13:05:18;25.10;99.90
15341;DHT22;7770;52.158;5.372;2023-07-13T13:08:05;25.00;99.90
15341;DHT22;7770;52.158;5.372;2023-07-13T13:10:51;25.20;99.90
15341;DHT22;7770;52.158;5.372;2023-07-13T13:13:37;25.30;99.90
15341;DHT22;7770;52.158;5.372;2023-07-13T13:19:17;25.70;99.90
15341;DHT22;7770;52.158;5.372;2023-07-13T13:22:08;25.30;99.90
15341;DHT22;7770;52.158;5.372;2023-07-13T13:24:54;24.90;99.90
15341;DHT22;7770;52.158;5.372;2023-07-13T13:27:43;24.50;99.90
15341;DHT22;7770;52.158;5.372;2023-07-13T13:30:30;24.20;99.90
15341;DHT22;7770;52.158;5.372;2023-07-13T13:33:18;24.30;99.90
15341;DHT22;7770;52.158;5.372;2023-07-13T13:36:22;24.20;99.90
15341;DHT22;7770;52.158;5.372;2023-07-13T13:39:22;24.30;99.90
15341;DHT22;7770;52.158;5.372;2023-07-13T13:42:10;24.90;99.90
15341;DHT22;7770;52.158;5.372;2023-07-13T13:44:56;24.80;99.90
15341;DHT22;7770;52.158;5.372;2023-07-13T13:47:42;24.70;99.90
15341;DHT22;7770;52.158;5.372;2023-07-13T13:50:28;24.50;99.90
15341;DHT22;7770;52.158;5.372;2023-07-13T13:53:14;24.00;99.90
15341;DHT22;7770;52.158;5.372;2023-07-13T13:56:01;23.90;99.90
15341;DHT22;7770;52.158;5.372;2023-07-13T13:58:47;24.20;99.90
15341;DHT22;7770;52.158;5.372;2023-07-13T14:01:34;24.40;99.90
15341;DHT22;7770;52.158;5.372;2023-07-13T14:04:22;24.30;99.90
15341;DHT22;7770;52.158;5.372;2023-07-13T14:07:08;24.20;99.90
15341;DHT22;7770;52.158;5.372;2023-07-13T14:09:57;24.10;99.90
15341;DHT22;7770;52.158;5.372;2023-07-13T14:12:51;24.00;99.90
15341;DHT22;7770;52.158;5.372;2023-07-13T14:15:38;24.30;99.90
15341;DHT22;7770;52.158;5.372;2023-07-13T14:18:24;24.80;99.90
15341;DHT22;7770;52.158;5.372;2023-07-13T14:21:16;24.80;99.90
15341;DHT22;7770;52.158;5.372;2023-07-13T14:24:03;24.80;99.90
15341;DHT22;7770;52.158;5.372;2023-07-13T14:26:49;24.30;99.90
15341;DHT22;7770;52.158;5.372;2023-07-13T14:29:36;24.20;99.90
15341;DHT22;7770;52.158;5.372;2023-07-13T14:32:22;24.30;99.90
15341;DHT22;7770;52.158;5.372;2023-07-13T14:35:13;24.00;99.90
15341;DHT22;7770;52.158;5.372;2023-07-13T14:38:00;24.00;99.90
15341;DHT22;7770;52.158;5.372;2023-07-13T14:40:46;23.90;99.90
15341;DHT22;7770;52.158;5.372;2023-07-13T14:43:32;23.60;99.90
15341;DHT22;7770;52.158;5.372;2023-07-13T14:46:27;23.50;99.90
15341;DHT22;7770;52.158;5.372;2023-07-13T14:49:41;23.60;99.90
15341;DHT22;7770;52.158;5.372;2023-07-13T14:52:28;23.80;99.90
15341;DHT22;7770;52.158;5.372;2023-07-13T14:55:17;23.90;99.90
15341;DHT22;7770;52.158;5.372;2023-07-13T14:58:03;24.20;99.90
15341;DHT22;7770;52.158;5.372;2023-07-13T15:00:49;24.40;99.90
15341;DHT22;7770;52.158;5.372;2023-07-13T15:03:42;24.40;99.90
15341;DHT22;7770;52.158;5.372;2023-07-13T15:06:30;24.10;99.90
15341;DHT22;7770;52.158;5.372;2023-07-13T15:09:17;23.70;99.90
15341;DHT22;7770;52.158;5.372;2023-07-13T15:12:03;23.30;99.90
15341;DHT22;7770;52.158;5.372;2023-07-13T15:14:51;23.50;99.90
15341;DHT22;7770;52.158;5.372;2023-07-13T15:17:39;24.00;99.90
15341;DHT22;7770;52.158;5.372;2023-07-13T15:20:31;24.30;99.90
15341;DHT22;7770;52.158;5.372;2023-07-13T15:23:21;24.40;99.90
15341;DHT22;7770;52.158;5.372;2023-07-13T15:26:13;24.30;99.90
15341;DHT22;7770;52.158;5.372;2023-07-13T15:29:00;24.50;99.90
15341;DHT22;7770;52.158;5.372;2023-07-13T15:31:47;24.50;99.90
15341;DHT22;7770;52.158;5.372;2023-07-13T15:34:33;24.40;99.90
15341;DHT22;7770;52.158;5.372;2023-07-13T15:37:19;23.90;99.90
15341;DHT22;7770;52.158;5.372;2023-07-13T15:40:06;23.50;99.90
15341;DHT22;7770;52.158;5.372;2023-07-13T15:42:53;23.30;99.90
15341;DHT22;7770;52.158;5.372;2023-07-13T15:45:40;23.50;99.90
15341;DHT22;7770;52.158;5.372;2023-07-13T15:48:27;23.70;99.90
15341;DHT22;7770;52.158;5.372;2023-07-13T15:51:20;23.70;99.90
15341;DHT22;7770;52.158;5.372;2023-07-13T15:54:13;23.60;99.90
15341;DHT22;7770;52.158;5.372;2023-07-13T15:57:02;23.50;99.90
15341;DHT22;7770;52.158;5.372;2023-07-13T15:59:48;23.30;99.90
15341;DHT22;7770;52.158;5.372;2023-07-13T16:02:34;23.20;99.90
15341;DHT22;7770;52.158;5.372;2023-07-13T16:05:21;23.30;99.90
15341;DHT22;7770;52.158;5.372;2023-07-13T16:08:25;23.30;99.90
15341;DHT22;7770;52.158;5.372;2023-07-13T16:11:29;23.10;99.90
15341;DHT22;7770;52.158;5.372;2023-07-13T16:14:20;23.10;99.90
15341;DHT22;7770;52.158;5.372;2023-07-13T16:17:11;23.00;99.90
15341;DHT22;7770;52.158;5.372;2023-07-13T16:19:58;22.90;99.90
15341;DHT22;7770;52.158;5.372;2023-07-13T16:22:48;22.80;99.90
15341;DHT22;7770;52.158;5.372;2023-07-13T16:25:35;22.90;99.90
15341;DHT22;7770;52.158;5.372;2023-07-13T16:28:21;22.80;99.90
15341;DHT22;7770;52.158;5.372;2023-07-13T16:31:07;22.70;99.90
15341;DHT22;7770;52.158;5.372;2023-07-13T16:33:55;22.50;99.90
15341;DHT22;7770;52.158;5.372;2023-07-13T16:36:41;22.40;99.90
15341;DHT22;7770;52.158;5.372;2023-07-13T16:39:30;22.50;99.90
15341;DHT22;7770;52.158;5.372;2023-07-13T16:42:16;22.50;99.90
15341;DHT22;7770;52.158;5.372;2023-07-13T16:45:03;22.50;99.90
15341;DHT22;7770;52.158;5.372;2023-07-13T16:47:51;22.40;99.90
15341;DHT22;7770;52.158;5.372;2023-07-13T16:50:38;22.40;99.90
15341;DHT22;7770;52.158;5.372;2023-07-13T16:53:29;22.50;99.90
15341;DHT22;7770;52.158;5.372;2023-07-13T16:56:19;22.40;99.90
15341;DHT22;7770;52.158;5.372;2023-07-13T16:59:13;22.40;99.90
15341;DHT22;7770;52.158;5.372;2023-07-13T17:02:16;22.40;99.90
15341;DHT22;7770;52.158;5.372;2023-07-13T17:05:16;22.20;99.90
15341;DHT22;7770;52.158;5.372;2023-07-13T17:08:18;22.10;99.90
15341;DHT22;7770;52.158;5.372;2023-07-13T17:11:10;22.00;99.90
15341;DHT22;7770;52.158;5.372;2023-07-13T17:13:56;21.90;99.90
15341;DHT22;7770;52.158;5.372;2023-07-13T17:16:43;21.90;99.90
15341;DHT22;7770;52.158;5.372;2023-07-13T17:19:30;22.00;99.90
15341;DHT22;7770;52.158;5.372;2023-07-13T17:22:17;22.10;99.90
15341;DHT22;7770;52.158;5.372;2023-07-13T17:25:05;22.30;99.90
15341;DHT22;7770;52.158;5.372;2023-07-13T17:27:58;22.20;99.90
15341;DHT22;7770;52.158;5.372;2023-07-13T17:30:44;22.20;99.90
15341;DHT22;7770;52.158;5.372;2023-07-13T17:33:41;22.20;99.90
15341;DHT22;7770;52.158;5.372;2023-07-13T17:36:27;22.30;99.90
15341;DHT22;7770;52.158;5.372;2023-07-13T17:39:19;22.30;99.90
15341;DHT22;7770;52.158;5.372;2023-07-13T17:42:06;22.20;99.90
15341;DHT22;7770;52.158;5.372;2023-07-13T17:44:52;22.20;99.90
15341;DHT22;7770;52.158;5.372;2023-07-13T17:47:38;22.10;99.90
15341;DHT22;7770;52.158;5.372;2023-07-13T17:50:31;22.00;99.90
15341;DHT22;7770;52.158;5.372;2023-07-13T17:53:23;22.00;99.90
15341;DHT22;7770;52.158;5.372;2023-07-13T17:56:12;21.90;99.90
15341;DHT22;7770;52.158;5.372;2023-07-13T17:58:59;21.90;99.90
15341;DHT22;7770;52.158;5.372;2023-07-13T18:01:46;21.90;99.90
15341;DHT22;7770;52.158;5.372;2023-07-13T18:04:32;21.80;99.90
15341;DHT22;7770;52.158;5.372;2023-07-13T18:07:18;21.80;99.90
15341;DHT22;7770;52.158;5.372;2023-07-13T18:10:14;21.70;99.90
15341;DHT22;7770;52.158;5.372;2023-07-13T18:13:00;21.70;99.90
15341;DHT22;7770;52.158;5.372;2023-07-13T18:15:46;21.60;99.90
15341;DHT22;7770;52.158;5.372;2023-07-13T18:18:34;21.50;99.90
15341;DHT22;7770;52.158;5.372;2023-07-13T18:21:20;21.40;99.90
15341;DHT22;7770;52.158;5.372;2023-07-13T18:24:08;21.50;99.90